Time;durP1;ratioP1;P1;durP2;ratioP2;P2;SDS_P1;SDS_P2;PMS_P1;PMS_P2;Temp;Humidity;BMP_temperature;BMP_pressure;BME280_temperature;BME280_humidity;BME280_pressure;Samples;Min_cycle;Max_cycle;Signal;HPM_P1;HPM_P2
2023/11/26 00:01:26;;;;;;;0.40;0.40;;;;;;;0.55;100.00;96753.28;5133402;27;20655;-40
2023/11/26 00:03:51;;;;;;;0.93;0.60;;;;;;;0.72;98.90;96750.94;5133287;27;20109;-40
2023/11/26 00:06:17;;;;;;;0.65;0.52;;;;;;;0.66;98.46;96738.72;5133129;27;20020;-40
2023/11/26 00:08:42;;;;;;;0.63;0.50;;;;;;;0.68;99.39;96732.25;5132856;27;20413;-40
2023/11/26 00:11:10;;;;;;;1.00;0.73;;;;;;;0.55;98.41;96724.50;5133306;27;20034;-40
2023/11/26 00:13:35;;;;;;;0.50;0.50;;;;;;;0.58;100.00;96745.81;5133197;27;20031;-40
2023/11/26 00:16:03;;;;;;;0.43;0.43;;;;;;;0.58;100.00;96737.97;5132963;27;20356;-40
2023/11/26 00:18:29;;;;;;;0.73;0.60;;;;;;;0.72;98.21;96748.34;5132882;27;20034;-40
2023/11/26 00:20:54;;;;;;;0.63;0.60;;;;;;;0.88;98.05;96765.34;5132641;27;20023;-40
2023/11/26 00:23:20;;;;;;;0.60;0.52;;;;;;;0.66;99.56;96760.47;5132946;27;20027;-40
2023/11/26 00:25:46;;;;;;;0.50;0.40;;;;;;;0.82;98.62;96760.94;5132699;27;20061;-38
2023/11/26 00:28:12;;;;;;;0.30;0.30;;;;;;;0.72;98.30;96756.19;5132414;27;20067;-39
2023/11/26 00:30:38;;;;;;;0.50;0.50;;;;;;;0.98;96.80;96755.16;5132696;27;20102;-40
2023/11/26 00:33:03;;;;;;;0.73;0.70;;;;;;;1.03;95.28;96752.72;5132963;27;20164;-39
2023/11/26 00:35:29;;;;;;;0.73;0.73;;;;;;;0.74;97.58;96765.44;5132143;27;20023;-37
2023/11/26 00:37:54;;;;;;;0.30;0.30;;;;;;;0.75;97.80;96767.03;5132767;27;20427;-40
2023/11/26 00:40:24;;;;;;;0.40;0.40;;;;;;;0.67;96.63;96764.69;5132601;27;20443;-40
2023/11/26 00:42:52;;;;;;;0.50;0.50;;;;;;;0.83;95.91;96788.72;5132596;27;20102;-39
2023/11/26 00:45:19;;;;;;;0.88;0.50;;;;;;;0.72;97.13;96792.84;5132376;27;20024;-40
2023/11/26 00:47:44;;;;;;;1.05;0.65;;;;;;;0.80;97.27;96797.00;5113653;27;20024;-40
2023/11/26 00:50:10;;;;;;;1.48;0.77;;;;;;;0.90;95.25;96798.13;5132036;27;20483;-40
2023/11/26 00:52:36;;;;;;;0.93;0.70;;;;;;;0.83;96.44;96804.44;5129691;27;20144;-40
2023/11/26 00:55:02;;;;;;;1.48;0.90;;;;;;;1.30;96.40;96810.91;5131883;27;20697;-40
2023/11/26 00:57:28;;;;;;;0.50;0.50;;;;;;;1.46;96.26;96822.63;5131727;27;20083;-40
2023/11/26 00:59:53;;;;;;;0.73;0.57;;;;;;;1.72;96.77;96833.88;5132144;27;20026;-40
2023/11/26 01:02:21;;;;;;;0.80;0.70;;;;;;;1.75;95.76;96842.13;5132287;27;20023;-37
2023/11/26 01:04:47;;;;;;;276.13;8.98;;;;;;;2.04;98.92;96844.25;5132054;27;20023;-40
2023/11/26 01:07:13;;;;;;;0.60;0.60;;;;;;;1.60;97.09;96841.69;5132205;27;20030;-40
2023/11/26 01:09:38;;;;;;;1.70;0.80;;;;;;;1.46;95.59;96835.75;5131837;27;20156;-40
2023/11/26 01:12:04;;;;;;;0.50;0.50;;;;;;;1.33;95.30;96841.09;5131230;27;20015;-39
2023/11/26 01:14:29;;;;;;;2.17;0.43;;;;;;;1.29;95.60;96826.84;5131823;27;20512;-37
2023/11/26 01:16:55;;;;;;;0.60;0.50;;;;;;;1.66;95.34;96835.56;5131662;27;20542;-37
2023/11/26 01:19:20;;;;;;;1.65;0.57;;;;;;;1.22;96.57;96844.41;5113682;27;20011;-39
2023/11/26 01:21:46;;;;;;;0.80;0.57;;;;;;;1.01;96.83;96850.81;5132109;27;20046;-40
2023/11/26 01:24:11;;;;;;;1.17;0.50;;;;;;;1.77;95.39;96860.25;5132081;27;20039;-40
2023/11/26 01:26:38;;;;;;;0.98;0.60;;;;;;;1.70;94.88;96857.69;5131869;27;20486;-40
2023/11/26 01:29:03;;;;;;;1.00;0.50;;;;;;;1.06;93.55;96858.84;5131834;27;20235;-40
2023/11/26 01:31:29;;;;;;;0.38;0.38;;;;;;;0.75;95.64;96853.41;5113186;28;20574;-40
2023/11/26 01:33:54;;;;;;;2.90;0.70;;;;;;;0.78;96.94;96870.50;5131996;28;20034;-39
2023/11/26 01:36:20;;;;;;;2.35;0.40;;;;;;;0.78;100.00;96875.75;5132096;28;20034;-40
2023/11/26 01:38:45;;;;;;;0.55;0.50;;;;;;;1.03;99.39;96896.75;5131708;28;20383;-40
2023/11/26 01:41:11;;;;;;;0.43;0.43;;;;;;;1.08;98.21;96890.88;5131827;28;20054;-40
2023/11/26 01:43:36;;;;;;;0.43;0.40;;;;;;;1.18;97.43;96883.34;5131946;28;20019;-40
2023/11/26 01:46:12;;;;;;;0.77;0.60;;;;;;;1.06;97.34;96892.91;5131773;28;20113;-40
2023/11/26 01:48:38;;;;;;;0.50;0.50;;;;;;;0.83;98.20;96893.47;5131500;28;20024;-40
2023/11/26 01:51:09;;;;;;;0.68;0.60;;;;;;;0.94;98.10;96884.94;5131849;28;20494;-40
2023/11/26 01:53:38;;;;;;;0.77;0.60;;;;;;;0.84;97.20;96900.28;5131544;28;20135;-40
2023/11/26 01:56:04;;;;;;;1.15;0.73;;;;;;;0.70;97.28;96899.56;5131673;28;20106;-40
2023/11/26 01:58:30;;;;;;;2.33;0.55;;;;;;;0.72;98.06;96916.69;5113196;28;20103;-40
2023/11/26 02:00:56;;;;;;;0.80;0.60;;;;;;;0.94;97.08;96926.84;5131317;28;20030;-40
2023/11/26 02:03:22;;;;;;;0.35;0.35;;;;;;;0.99;97.57;96927.00;5131422;27;20031;-40
2023/11/26 02:05:48;;;;;;;1.85;0.50;;;;;;;0.91;97.51;96917.56;5134837;27;20073;-40
2023/11/26 02:08:15;;;;;;;0.40;0.40;;;;;;;1.11;96.18;96924.50;5135444;27;20030;-40
2023/11/26 02:10:41;;;;;;;0.75;0.63;;;;;;;1.09;94.28;96924.72;5135370;27;20026;-40
2023/11/26 02:13:07;;;;;;;0.50;0.50;;;;;;;1.07;92.76;96924.13;5135513;27;20023;-39
2023/11/26 02:15:34;;;;;;;1.25;0.52;;;;;;;1.04;93.11;96942.88;5135261;27;20019;-39
2023/11/26 02:18:00;;;;;;;1.27;0.60;;;;;;;1.00;94.15;96946.94;5135522;27;20015;-40
2023/11/26 02:20:26;;;;;;;0.30;0.30;;;;;;;0.98;92.67;96944.53;5135941;27;20050;-40
2023/11/26 02:22:52;;;;;;;0.63;0.45;;;;;;;0.99;93.81;96945.34;5135787;27;20042;-40
2023/11/26 02:25:20;;;;;;;0.50;0.50;;;;;;;0.84;95.26;96957.88;5136128;27;20045;-40
2023/11/26 02:27:46;;;;;;;1.88;0.55;;;;;;;0.77;95.38;96958.72;5135514;27;20019;-40
2023/11/26 02:30:13;;;;;;;0.60;0.50;;;;;;;0.73;98.32;96983.72;5135452;27;20067;-40
2023/11/26 02:32:39;;;;;;;2.85;0.65;;;;;;;0.84;95.98;96992.75;5135600;27;20088;-40
2023/11/26 02:35:05;;;;;;;0.38;0.30;;;;;;;1.05;95.17;96988.19;5135145;27;20072;-40
2023/11/26 02:37:30;;;;;;;0.40;0.40;;;;;;;0.84;93.32;96990.13;5135803;27;20022;-40
2023/11/26 02:39:56;;;;;;;0.40;0.40;;;;;;;1.03;94.41;97003.31;5135415;27;20115;-40
2023/11/26 02:42:22;;;;;;;0.65;0.43;;;;;;;0.83;94.54;97004.22;5135390;27;20017;-39
2023/11/26 02:44:47;;;;;;;0.50;0.40;;;;;;;0.78;95.09;97007.47;5135367;27;20410;-40
2023/11/26 02:47:13;;;;;;;0.68;0.63;;;;;;;0.81;94.29;97016.72;5126332;27;20027;-39
2023/11/26 02:49:38;;;;;;;0.47;0.47;;;;;;;0.87;94.57;97026.34;5114955;28;20073;-38
2023/11/26 02:52:04;;;;;;;1.80;0.60;;;;;;;0.91;95.78;97048.50;5114829;28;20098;-40
2023/11/26 02:54:29;;;;;;;1.83;0.77;;;;;;;1.15;97.58;97046.19;5129967;27;20043;-38
2023/11/26 02:56:55;;;;;;;0.75;0.60;;;;;;;1.15;97.79;97067.16;5135528;27;20131;-39
2023/11/26 02:59:20;;;;;;;4.18;0.75;;;;;;;1.52;97.80;97069.97;5135374;27;20019;-39
2023/11/26 03:01:47;;;;;;;0.50;0.50;;;;;;;1.68;96.83;97060.81;5135404;27;20103;-38
2023/11/26 03:04:17;;;;;;;0.43;0.43;;;;;;;1.86;95.88;97071.38;5135441;27;20026;-40
2023/11/26 03:06:44;;;;;;;1.08;0.55;;;;;;;1.80;95.42;97080.09;5135440;27;20057;-40
2023/11/26 03:09:29;;;;;;;0.40;0.40;;;;;;;1.56;97.25;97095.56;5135331;27;20022;-40
2023/11/26 03:14:38;;;;;;;0.50;0.50;;;;;;;0.81;96.78;97094.47;5135440;27;20160;-40
2023/11/26 03:17:04;;;;;;;0.82;0.60;;;;;;;0.86;96.17;97097.28;5134731;27;20054;-40
2023/11/26 03:19:29;;;;;;;0.95;0.50;;;;;;;1.00;96.78;97098.84;5135072;27;20015;-40
2023/11/26 03:21:54;;;;;;;0.50;0.50;;;;;;;1.04;98.11;97110.50;5134736;27;20096;-40
2023/11/26 03:24:20;;;;;;;1.00;0.52;;;;;;;1.44;97.16;97115.59;5134861;27;20031;-40
2023/11/26 03:26:45;;;;;;;0.98;0.77;;;;;;;1.36;97.00;97126.31;5134755;27;20030;-40
2023/11/26 03:29:11;;;;;;;1.02;0.70;;;;;;;0.98;95.20;97132.28;5134753;27;20102;-38
2023/11/26 03:31:36;;;;;;;4.03;1.63;;;;;;;0.81;96.33;97123.28;5134734;27;20026;-40
2023/11/26 03:34:08;;;;;;;3.83;2.03;;;;;;;1.07;96.35;97141.53;5134360;27;20102;-40
2023/11/26 03:36:35;;;;;;;2.95;1.90;;;;;;;1.29;97.14;97136.00;5134720;27;20030;-40
2023/11/26 03:39:01;;;;;;;1.98;1.63;;;;;;;1.40;97.18;97150.28;5134094;27;20448;-40
2023/11/26 03:41:26;;;;;;;3.15;1.67;;;;;;;1.59;97.01;97159.09;5134585;27;20019;-40
2023/11/26 03:43:51;;;;;;;2.15;1.40;;;;;;;1.53;96.96;97166.75;5134057;27;20398;-40
2023/11/26 03:46:18;;;;;;;2.40;1.55;;;;;;;1.44;95.76;97173.25;5133871;27;20053;-40
2023/11/26 03:48:45;;;;;;;1.58;1.10;;;;;;;1.28;96.27;97174.53;5133659;27;20027;-40
2023/11/26 03:51:17;;;;;;;2.17;0.98;;;;;;;1.28;95.05;97171.09;5133639;27;20026;-40
2023/11/26 03:53:43;;;;;;;0.98;0.82;;;;;;;1.26;95.84;97175.75;5132968;27;20058;-40
2023/11/26 03:56:08;;;;;;;1.05;0.70;;;;;;;1.22;95.96;97183.22;5133791;27;20054;-40
2023/11/26 03:58:34;;;;;;;1.30;0.80;;;;;;;1.46;95.08;97189.56;5133397;27;20023;-40
2023/11/26 04:00:59;;;;;;;0.57;0.47;;;;;;;1.28;95.14;97184.22;5133731;27;20034;-39
2023/11/26 04:03:25;;;;;;;0.68;0.57;;;;;;;1.20;95.24;97203.56;5133730;27;20027;-40
2023/11/26 04:05:50;;;;;;;1.85;0.57;;;;;;;1.28;95.79;97213.03;5133808;27;20020;-39
2023/11/26 04:08:16;;;;;;;2.15;0.82;;;;;;;1.12;95.82;97227.34;5133917;27;20034;-39
2023/11/26 04:10:41;;;;;;;0.77;0.57;;;;;;;1.35;95.54;97232.13;5134233;27;20019;-40
2023/11/26 04:13:06;;;;;;;4.03;0.68;;;;;;;1.16;96.59;97239.84;5133482;27;20050;-40
2023/11/26 04:15:32;;;;;;;0.57;0.50;;;;;;;1.11;96.32;97250.13;5133857;27;20102;-40
2023/11/26 04:17:57;;;;;;;0.85;0.50;;;;;;;1.11;96.32;97247.50;5134026;27;20015;-40
2023/11/26 04:20:23;;;;;;;0.77;0.35;;;;;;;1.38;95.36;97259.78;5133471;27;20117;-40
2023/11/26 04:22:48;;;;;;;0.60;0.50;;;;;;;1.39;94.53;97272.69;5133795;27;20031;-40
2023/11/26 04:25:14;;;;;;;2.33;0.80;;;;;;;1.47;93.67;97285.56;5133677;27;20026;-40
2023/11/26 04:27:40;;;;;;;2.35;0.95;;;;;;;1.52;94.44;97298.84;5133283;27;20037;-40
2023/11/26 04:30:08;;;;;;;1.70;0.98;;;;;;;1.48;93.22;97295.00;5133577;27;20034;-40
2023/11/26 04:32:33;;;;;;;3.45;1.25;;;;;;;1.27;94.00;97311.78;5133599;27;20029;-40
2023/11/26 04:34:58;;;;;;;1.38;0.80;;;;;;;1.39;94.69;97319.84;5133574;27;20015;-39
2023/11/26 04:37:24;;;;;;;0.55;0.40;;;;;;;1.49;93.93;97327.28;5133408;27;20122;-41
2023/11/26 04:39:49;;;;;;;0.90;0.57;;;;;;;1.49;92.86;97338.56;5133306;27;20462;-40
2023/11/26 04:42:16;;;;;;;0.63;0.52;;;;;;;1.75;92.66;97350.00;5133307;27;20072;-40
2023/11/26 04:44:42;;;;;;;1.70;0.77;;;;;;;1.64;91.79;97355.88;5133853;27;20068;-40
2023/11/26 04:47:08;;;;;;;0.90;0.80;;;;;;;1.69;90.79;97358.69;5133406;27;20440;-40
2023/11/26 04:49:34;;;;;;;0.50;0.50;;;;;;;1.83;89.60;97359.47;5133207;27;20035;-40
2023/11/26 04:52:00;;;;;;;0.88;0.80;;;;;;;2.19;88.80;97353.75;5133060;27;20064;-40
2023/11/26 04:54:26;;;;;;;1.25;0.60;;;;;;;2.07;88.73;97348.31;5132384;27;20088;-40
2023/11/26 04:56:53;;;;;;;0.73;0.52;;;;;;;2.25;88.05;97359.97;5133209;27;20023;-40
2023/11/26 04:59:18;;;;;;;0.98;0.80;;;;;;;2.33;88.09;97360.53;5132941;27;20026;-40
2023/11/26 05:01:48;;;;;;;1.35;0.95;;;;;;;2.48;85.82;97362.09;5133273;27;20027;-40
2023/11/26 05:04:15;;;;;;;0.95;0.88;;;;;;;2.51;85.22;97369.53;5132982;27;20379;-41
2023/11/26 05:06:42;;;;;;;1.90;1.20;;;;;;;2.48;85.57;97360.25;5132898;27;20087;-39
2023/11/26 05:09:11;;;;;;;2.08;1.50;;;;;;;2.54;85.48;97377.00;5125460;27;20019;-39
2023/11/26 05:11:37;;;;;;;1.92;1.40;;;;;;;2.45;85.20;97375.63;5132377;27;20438;-39
2023/11/26 05:14:02;;;;;;;2.25;1.50;;;;;;;2.21;85.20;97377.94;5132849;27;20486;-40
2023/11/26 05:16:28;;;;;;;1.75;1.20;;;;;;;2.34;85.70;97383.16;5133181;27;20102;-39
2023/11/26 05:18:53;;;;;;;0.95;0.80;;;;;;;2.79;83.54;97399.91;5132788;27;20536;-41
2023/11/26 05:21:18;;;;;;;1.40;1.05;;;;;;;2.78;82.95;97411.41;5132523;27;20015;-40
2023/11/26 05:23:44;;;;;;;1.10;1.00;;;;;;;2.42;84.67;97413.59;5132741;27;20031;-41
2023/11/26 05:26:13;;;;;;;1.35;0.85;;;;;;;2.51;85.33;97411.53;5132874;27;20019;-41
2023/11/26 05:28:39;;;;;;;1.65;1.02;;;;;;;2.22;85.98;97421.53;5132880;27;20078;-40
2023/11/26 05:31:04;;;;;;;1.55;0.70;;;;;;;2.32;85.98;97432.44;5110105;28;20111;-40
2023/11/26 05:33:30;;;;;;;1.20;0.82;;;;;;;2.15;86.65;97442.56;5123922;28;20034;-41
2023/11/26 05:35:55;;;;;;;1.17;0.70;;;;;;;2.38;85.62;97458.84;5133967;27;20019;-40
2023/11/26 05:38:20;;;;;;;0.70;0.60;;;;;;;2.53;84.89;97460.22;5153199;27;20023;-40
2023/11/26 05:40:47;;;;;;;1.00;0.80;;;;;;;2.47;85.13;97454.97;5146305;27;20108;-40
2023/11/26 05:43:12;;;;;;;1.02;0.80;;;;;;;2.40;84.57;97469.94;5136705;27;20041;-41
2023/11/26 05:45:38;;;;;;;0.98;0.77;;;;;;;2.53;84.66;97470.72;5136794;27;20031;-41
2023/11/26 05:48:03;;;;;;;1.33;0.90;;;;;;;2.57;83.93;97483.41;5145171;27;20026;-40
2023/11/26 05:50:29;;;;;;;3.10;1.45;;;;;;;2.24;85.92;97486.94;5141445;27;20019;-38
2023/11/26 05:52:54;;;;;;;1.67;1.13;;;;;;;2.15;85.12;97488.97;5144636;27;20023;-40
2023/11/26 05:55:21;;;;;;;2.13;1.40;;;;;;;2.58;83.72;97504.22;5144714;27;20078;-38
2023/11/26 05:57:48;;;;;;;1.85;1.30;;;;;;;2.52;82.54;97499.81;5143411;27;20019;-41
2023/11/26 06:00:14;;;;;;;1.85;1.33;;;;;;;2.38;83.82;97514.78;5144332;27;20029;-41
2023/11/26 06:02:40;;;;;;;1.45;1.27;;;;;;;2.28;84.39;97524.88;5144823;27;20429;-40
2023/11/26 06:05:07;;;;;;;1.27;1.00;;;;;;;2.29;85.90;97535.19;5144357;27;20466;-40
2023/11/26 06:07:33;;;;;;;1.58;1.00;;;;;;;2.34;85.06;97539.81;5144122;27;20450;-41
2023/11/26 06:09:58;;;;;;;2.08;1.25;;;;;;;2.81;86.95;97558.09;5143377;27;20027;-39
2023/11/26 06:12:24;;;;;;;1.27;0.95;;;;;;;3.06;85.41;97558.22;5135185;27;20042;-40
2023/11/26 06:14:49;;;;;;;1.00;0.80;;;;;;;3.00;85.63;97565.13;5135641;27;20027;-40
2023/11/26 06:17:15;;;;;;;1.65;1.20;;;;;;;3.10;84.66;97578.63;5125591;27;20028;-40
2023/11/26 06:19:41;;;;;;;2.50;1.27;;;;;;;3.20;89.91;97577.34;5130991;27;20062;-40
2023/11/26 06:22:07;;;;;;;2.25;1.25;;;;;;;2.62;87.65;97580.78;5136036;27;20061;-40
2023/11/26 06:24:33;;;;;;;2.83;1.40;;;;;;;2.39;88.28;97596.97;5135774;27;20360;-42
2023/11/26 06:26:59;;;;;;;1.98;1.30;;;;;;;2.09;88.29;97590.31;5135850;27;20031;-41
2023/11/26 06:29:24;;;;;;;2.53;1.23;;;;;;;2.04;89.06;97605.84;5135744;27;20421;-40
2023/11/26 06:31:49;;;;;;;1.83;1.40;;;;;;;2.20;89.39;97616.97;5135840;27;20030;-44
2023/11/26 06:34:15;;;;;;;2.38;1.60;;;;;;;2.79;87.70;97623.97;5135459;27;20023;-41
2023/11/26 06:36:41;;;;;;;2.97;2.20;;;;;;;2.81;87.15;97632.47;5135310;27;20023;-39
2023/11/26 06:39:08;;;;;;;3.67;1.58;;;;;;;2.50;88.58;97641.00;5135133;27;20022;-40
2023/11/26 06:41:34;;;;;;;2.00;1.40;;;;;;;2.48;88.58;97640.41;5135208;27;20035;-40
2023/11/26 06:44:00;;;;;;;2.47;1.60;;;;;;;2.46;88.43;97645.03;5134871;27;20478;-41
2023/11/26 06:46:27;;;;;;;3.00;1.80;;;;;;;2.46;88.33;97658.16;5134311;27;20522;-39
2023/11/26 06:48:53;;;;;;;3.03;1.80;;;;;;;2.47;88.57;97667.66;5134651;27;20019;-40
2023/11/26 06:51:19;;;;;;;3.03;2.00;;;;;;;2.48;88.18;97667.44;5127508;27;20653;-40
2023/11/26 06:53:46;;;;;;;3.10;1.80;;;;;;;2.64;87.43;97674.09;5124817;27;20159;-41
2023/11/26 06:56:11;;;;;;;2.17;1.85;;;;;;;2.48;87.31;97688.47;5134380;27;20027;-41
2023/11/26 06:58:38;;;;;;;3.13;2.00;;;;;;;2.44;87.26;97670.69;5125783;27;20457;-40
2023/11/26 07:01:05;;;;;;;2.72;2.08;;;;;;;2.39;87.07;97686.22;5113524;28;20031;-41
2023/11/26 07:03:32;;;;;;;3.95;2.20;;;;;;;2.32;86.83;97681.78;5113968;28;20139;-40
2023/11/26 07:06:01;;;;;;;2.92;2.30;;;;;;;2.30;87.05;97696.94;5113328;28;20027;-41
2023/11/26 07:08:28;;;;;;;16.35;7.97;;;;;;;2.20;85.82;97696.50;5113133;28;20046;-41
2023/11/26 07:10:54;;;;;;;4.60;3.00;;;;;;;2.25;85.02;97694.09;5112187;28;20032;-40
2023/11/26 07:13:19;;;;;;;4.07;2.55;;;;;;;2.10;85.85;97711.84;5112046;28;20027;-41
2023/11/26 07:15:45;;;;;;;5.78;3.53;;;;;;;2.20;86.33;97733.25;5111871;28;20042;-41
2023/11/26 07:18:11;;;;;;;3.40;2.38;;;;;;;2.07;85.80;97735.84;5111832;28;20095;-41
2023/11/26 07:20:37;;;;;;;3.65;2.58;;;;;;;1.91;85.87;97734.38;5112663;28;20024;-41
2023/11/26 07:23:03;;;;;;;3.88;2.83;;;;;;;1.83;85.70;97752.91;5112680;28;20122;-40
2023/11/26 07:25:28;;;;;;;5.07;3.00;;;;;;;1.76;85.85;97756.31;5112547;28;20069;-40
2023/11/26 07:27:55;;;;;;;4.22;2.95;;;;;;;2.06;84.28;97769.16;5112679;28;20027;-40
2023/11/26 07:30:21;;;;;;;3.28;2.65;;;;;;;2.66;84.68;97779.75;5094550;28;20663;-40
2023/11/26 07:32:46;;;;;;;3.72;2.75;;;;;;;2.47;82.23;97783.19;5112869;28;20023;-40
2023/11/26 07:35:11;;;;;;;4.05;2.83;;;;;;;2.32;83.37;97791.22;5113140;28;20020;-39
2023/11/26 07:37:37;;;;;;;3.60;2.60;;;;;;;2.13;82.61;97792.78;5113016;28;20090;-39
2023/11/26 07:40:05;;;;;;;5.45;3.33;;;;;;;2.01;82.58;97797.78;5113027;28;20488;-40
2023/11/26 07:42:33;;;;;;;5.00;3.33;;;;;;;2.34;82.97;97811.03;5113208;28;20043;-41
2023/11/26 07:44:59;;;;;;;4.95;3.22;;;;;;;2.18;82.51;97824.50;5113235;28;20022;-41
2023/11/26 07:47:24;;;;;;;3.83;2.70;;;;;;;2.19;82.16;97823.50;5112880;28;20110;-41
2023/11/26 07:49:50;;;;;;;4.55;3.28;;;;;;;2.14;82.54;97841.63;5112819;28;20088;-41
2023/11/26 07:52:16;;;;;;;5.57;3.08;;;;;;;2.09;82.47;97841.41;5113201;28;20027;-41
2023/11/26 07:54:41;;;;;;;4.35;2.75;;;;;;;2.14;82.65;97845.06;5128423;27;20047;-41
2023/11/26 07:57:07;;;;;;;5.95;3.70;;;;;;;1.93;82.62;97832.88;5133144;27;20491;-40
2023/11/26 07:59:32;;;;;;;4.45;2.97;;;;;;;2.26;81.89;97876.00;5133133;27;20011;-41
2023/11/26 08:01:58;;;;;;;2.88;2.28;;;;;;;2.33;81.49;97877.66;5132571;27;20462;-40
2023/11/26 08:04:26;;;;;;;5.57;3.15;;;;;;;2.21;82.14;97881.84;5133109;27;20062;-41
2023/11/26 08:06:52;;;;;;;5.20;3.53;;;;;;;2.09;80.78;97876.31;5132998;27;20012;-41
2023/11/26 08:09:18;;;;;;;4.05;2.67;;;;;;;2.37;79.64;97900.91;5132712;27;20027;-39
2023/11/26 08:11:45;;;;;;;6.72;3.35;;;;;;;2.66;78.54;97905.84;5132656;27;20023;-41
2023/11/26 08:14:14;;;;;;;8.77;4.40;;;;;;;2.34;78.34;97909.94;5132909;27;20019;-41
2023/11/26 08:16:41;;;;;;;6.22;3.83;;;;;;;2.46;77.82;97934.66;5132384;27;20099;-40
2023/11/26 08:19:12;;;;;;;5.15;3.10;;;;;;;2.39;77.01;97925.13;5133225;27;20015;-40
2023/11/26 08:21:39;;;;;;;3.45;2.33;;;;;;;2.05;76.93;97945.94;5133077;27;20030;-41
2023/11/26 08:24:13;;;;;;;3.90;2.42;;;;;;;2.07;76.14;97953.63;5132817;27;20063;-40
2023/11/26 08:26:39;;;;;;;3.45;2.25;;;;;;;2.11;75.46;97953.06;5132713;27;20015;-40
2023/11/26 08:29:04;;;;;;;5.22;2.67;;;;;;;2.25;76.10;97966.28;5132883;27;20115;-41
2023/11/26 08:31:31;;;;;;;4.10;2.60;;;;;;;2.60;74.24;97969.66;5132679;27;20467;-41
2023/11/26 08:33:57;;;;;;;3.78;2.72;;;;;;;2.29;75.64;97978.81;5132428;27;20023;-40
2023/11/26 08:36:23;;;;;;;4.53;2.92;;;;;;;2.40;74.22;97989.75;5132500;27;20041;-43
2023/11/26 08:38:50;;;;;;;3.85;2.50;;;;;;;2.39;74.15;97990.78;5132205;27;20023;-40
2023/11/26 08:41:20;;;;;;;4.00;2.80;;;;;;;2.40;74.06;97995.00;5132580;27;20168;-40
2023/11/26 08:43:46;;;;;;;4.15;2.72;;;;;;;2.58;73.17;98002.38;5131893;27;20053;-41
2023/11/26 08:46:14;;;;;;;3.53;2.72;;;;;;;2.72;71.58;98018.03;5131700;27;20114;-42
2023/11/26 08:48:40;;;;;;;5.30;3.15;;;;;;;2.63;74.34;98010.50;5131433;27;20084;-41
2023/11/26 08:51:05;;;;;;;4.07;2.42;;;;;;;2.52;71.92;98020.53;5131179;27;20458;-40
2023/11/26 08:53:31;;;;;;;5.47;2.70;;;;;;;2.92;70.45;98019.91;5112699;27;20019;-41
2023/11/26 08:55:57;;;;;;;4.65;2.60;;;;;;;2.67;68.73;98022.25;5131107;27;20120;-43
2023/11/26 08:58:22;;;;;;;4.22;2.72;;;;;;;3.10;69.25;98057.00;5131594;27;20406;-42
2023/11/26 09:00:49;;;;;;;3.63;2.50;;;;;;;2.85;69.30;98050.59;5131377;27;20099;-42
2023/11/26 09:03:15;;;;;;;3.40;2.38;;;;;;;2.81;68.99;98063.31;5131414;27;20414;-41
2023/11/26 09:05:41;;;;;;;4.43;2.83;;;;;;;2.86;69.34;98070.63;5131386;27;20023;-43
2023/11/26 09:08:06;;;;;;;3.97;2.42;;;;;;;2.96;68.99;98078.16;5131228;27;20030;-42
2023/11/26 09:10:32;;;;;;;4.20;2.60;;;;;;;3.05;68.53;98085.69;5131839;27;20088;-40
2023/11/26 09:12:57;;;;;;;3.63;2.30;;;;;;;2.50;67.59;98079.50;5131323;27;20493;-42
2023/11/26 09:15:26;;;;;;;4.43;2.53;;;;;;;2.67;69.53;98080.81;5131529;27;20027;-43
2023/11/26 09:17:51;;;;;;;3.85;2.75;;;;;;;2.87;69.01;98101.13;5131434;27;20035;-42
2023/11/26 09:20:17;;;;;;;5.10;2.35;;;;;;;2.72;67.83;98099.47;5131299;27;20075;-39
2023/11/26 09:22:42;;;;;;;4.60;3.15;;;;;;;2.60;69.74;98111.50;5131114;27;20038;-43
2023/11/26 09:25:10;;;;;;;4.53;3.05;;;;;;;2.48;69.60;98108.59;5131242;27;20027;-42
2023/11/26 09:27:36;;;;;;;3.97;2.75;;;;;;;2.42;69.18;98108.53;5130802;27;20027;-41
2023/11/26 09:30:04;;;;;;;4.43;2.47;;;;;;;2.49;69.13;98118.06;5131056;27;20026;-40
2023/11/26 09:32:31;;;;;;;4.43;2.88;;;;;;;2.57;68.84;98129.44;5131006;27;20058;-43
2023/11/26 09:34:56;;;;;;;6.03;3.47;;;;;;;2.79;68.88;98125.75;5130922;27;20025;-41
2023/11/26 09:37:22;;;;;;;6.15;3.78;;;;;;;2.77;68.16;98137.47;5130785;28;20024;-41
2023/11/26 09:39:47;;;;;;;4.30;3.13;;;;;;;2.70;68.42;98153.16;5131461;27;20394;-41
2023/11/26 09:42:13;;;;;;;3.63;2.90;;;;;;;2.62;69.23;98167.25;5131740;28;20106;-42
2023/11/26 09:44:44;;;;;;;3.58;2.80;;;;;;;2.45;68.08;98171.97;5131730;28;20031;-42
2023/11/26 09:47:10;;;;;;;3.00;2.22;;;;;;;2.49;67.21;98167.97;5131767;28;20583;-42
2023/11/26 09:49:36;;;;;;;4.22;2.50;;;;;;;2.47;67.45;98164.72;5113090;28;20020;-40
2023/11/26 09:52:02;;;;;;;4.35;2.55;;;;;;;2.43;66.54;98166.09;5112799;28;20027;-37
2023/11/26 09:54:29;;;;;;;3.83;2.60;;;;;;;2.78;65.66;98179.31;5130201;28;20058;-42
2023/11/26 09:56:55;;;;;;;4.07;2.90;;;;;;;2.62;67.18;98190.09;5130781;28;20039;-41
2023/11/26 09:59:24;;;;;;;3.55;2.40;;;;;;;2.55;65.45;98166.38;5130756;28;20415;-44
2023/11/26 10:01:50;;;;;;;9.05;3.05;;;;;;;2.46;65.65;98172.81;5130686;28;20509;-43
2023/11/26 10:04:16;;;;;;;4.30;2.72;;;;;;;2.39;64.65;98166.69;5130416;28;20027;-41
2023/11/26 10:06:41;;;;;;;4.35;2.42;;;;;;;2.52;64.88;98187.81;5130756;28;20051;-42
2023/11/26 10:09:17;;;;;;;5.00;3.03;;;;;;;2.96;66.18;98199.84;5130651;27;20029;-41
2023/11/26 10:11:43;;;;;;;4.95;3.00;;;;;;;2.86;65.39;98191.50;5130218;28;20110;-40
2023/11/26 10:14:15;;;;;;;5.35;3.20;;;;;;;2.58;66.14;98191.47;5130274;28;20058;-44
2023/11/26 10:16:41;;;;;;;4.05;2.80;;;;;;;2.54;65.57;98215.50;5130293;28;20072;-42
2023/11/26 10:19:07;;;;;;;4.47;2.95;;;;;;;2.62;65.48;98217.16;5130637;28;20023;-43
2023/11/26 10:21:33;;;;;;;3.15;2.40;;;;;;;2.57;64.51;98231.88;5130376;28;20639;-42
2023/11/26 10:24:03;;;;;;;5.18;2.53;;;;;;;2.33;64.85;98237.31;5130572;28;20459;-41
2023/11/26 10:26:29;;;;;;;6.53;3.22;;;;;;;2.58;65.39;98221.19;5133455;27;20034;-43
2023/11/26 10:29:01;;;;;;;4.93;2.83;;;;;;;2.84;67.15;98220.59;5134169;27;20034;-41
2023/11/26 10:31:27;;;;;;;5.32;3.10;;;;;;;2.93;67.14;98231.75;5134150;27;20039;-43
2023/11/26 10:34:06;;;;;;;6.70;2.85;;;;;;;2.71;64.02;98244.13;5134199;27;20023;-42
2023/11/26 10:36:32;;;;;;;3.38;2.08;;;;;;;2.46;64.80;98246.34;5134248;27;20023;-42
2023/11/26 10:38:58;;;;;;;6.30;3.30;;;;;;;2.49;64.95;98256.44;5134073;27;20457;-42
2023/11/26 10:41:25;;;;;;;5.07;2.88;;;;;;;2.56;64.20;98256.53;5133886;27;20031;-42
2023/11/26 10:43:55;;;;;;;5.75;3.17;;;;;;;2.62;65.00;98269.69;5133885;27;20030;-41
2023/11/26 10:46:25;;;;;;;5.78;2.60;;;;;;;2.83;63.61;98283.84;5116643;27;20080;-43
2023/11/26 10:48:55;;;;;;;5.22;3.10;;;;;;;2.63;62.88;98309.94;5135044;27;20054;-41
2023/11/26 10:51:26;;;;;;;4.07;2.67;;;;;;;3.00;63.83;98306.22;5134733;27;20035;-42
2023/11/26 10:54:03;;;;;;;5.97;3.17;;;;;;;3.06;62.04;98302.00;5134073;27;20105;-41
2023/11/26 10:56:39;;;;;;;6.75;3.17;;;;;;;3.10;62.50;98317.22;5134572;27;20059;-41
2023/11/26 10:59:09;;;;;;;6.03;3.08;;;;;;;3.03;61.87;98315.56;5134679;27;20023;-41
2023/11/26 11:01:38;;;;;;;;;;;;;;;2.88;62.05;98326.94;5134781;27;20027;-45
2023/11/26 11:04:08;;;;;;;5.72;2.70;;;;;;;3.16;61.30;98333.22;5134464;27;19911;-42
2023/11/26 11:06:35;;;;;;;4.78;3.28;;;;;;;3.45;61.35;98340.13;5134605;27;20027;-43
2023/11/26 11:09:02;;;;;;;3.05;2.05;;;;;;;2.92;61.00;98351.81;5134322;27;20019;-41
2023/11/26 11:11:39;;;;;;;3.88;2.53;;;;;;;3.08;60.91;98347.31;5122952;27;20036;-43
2023/11/26 11:14:06;;;;;;;3.33;2.42;;;;;;;2.91;61.02;98354.63;5113834;28;20111;-44
2023/11/26 11:16:32;;;;;;;3.97;2.20;;;;;;;3.13;60.65;98355.47;5113826;27;20099;-43
2023/11/26 11:18:57;;;;;;;3.90;2.40;;;;;;;3.67;60.07;98359.28;5113624;28;20020;-43
2023/11/26 11:21:24;;;;;;;4.82;2.70;;;;;;;3.58;59.75;98365.69;5113735;28;20027;-41
2023/11/26 11:23:51;;;;;;;3.33;2.05;;;;;;;3.75;58.83;98366.22;5114087;27;20038;-42
2023/11/26 11:26:19;;;;;;;4.43;2.80;;;;;;;3.91;59.16;98366.72;5113492;28;20047;-42
2023/11/26 11:28:53;;;;;;;2.83;2.30;;;;;;;3.55;59.23;98372.16;5113842;28;20019;-42
2023/11/26 11:31:47;;;;;;;3.63;2.25;;;;;;;3.31;59.90;98370.75;5113417;28;20023;-43
2023/11/26 11:34:13;;;;;;;2.80;2.00;;;;;;;3.64;59.54;98370.22;5107560;28;20035;-43
2023/11/26 11:36:46;;;;;;;2.75;2.10;;;;;;;3.60;58.88;98368.94;5112204;28;20443;-42
2023/11/26 11:39:17;;;;;;;3.30;2.20;;;;;;;3.62;60.64;98374.84;5113251;28;20504;-44
2023/11/26 11:41:57;;;;;;;2.72;2.05;;;;;;;3.87;58.23;98381.28;5113349;28;20027;-42